Time;durP1;ratioP1;P1;durP2;ratioP2;P2;SDS_P1;SDS_P2;PMS_P1;PMS_P2;Temp;Humidity;BMP_temperature;BMP_pressure;BME280_temperature;BME280_humidity;BME280_pressure;Samples;Min_cycle;Max_cycle;Signal;HPM_P1;HPM_P2
2022/03/05 00:01:38;;;;;;;;;;;7.10;52.80;;;;;;5073585;28;19912;-86
2022/03/05 00:04:03;;;;;;;;;;;6.90;52.70;;;;;;5055853;28;19996;-86
2022/03/05 00:06:30;;;;;;;;;;;6.80;53.10;;;;;;5073914;28;19916;-86
2022/03/05 00:08:55;;;;;;;;;;;6.70;53.60;;;;;;5072754;28;20376;-86
2022/03/05 00:11:21;;;;;;;;;;;6.60;53.50;;;;;;5056848;28;19921;-86
2022/03/05 00:13:46;;;;;;;;;;;6.60;53.80;;;;;;5071537;28;19919;-86
2022/03/05 00:16:12;;;;;;;;;;;6.50;54.40;;;;;;5073051;28;20354;-86
2022/03/05 00:18:37;;;;;;;;;;;6.40;54.70;;;;;;5073537;28;19912;-86
2022/03/05 00:21:03;;;;;;;;;;;6.30;55.20;;;;;;5072829;28;19913;-86
2022/03/05 00:23:28;;;;;;;;;;;6.20;56.10;;;;;;5073274;28;19963;-86
2022/03/05 00:25:54;;;;;;;;;;;6.20;56.20;;;;;;5073194;28;19919;-86
2022/03/05 00:28:19;;;;;;;;;;;6.20;56.10;;;;;;5073383;28;19919;-86
2022/03/05 00:30:45;;;;;;;;;;;6.20;55.90;;;;;;5072308;28;19927;-87
2022/03/05 00:33:11;;;;;;;;;;;6.20;56.20;;;;;;5072908;28;19912;-87
2022/03/05 00:35:36;;;;;;;;;;;6.30;55.80;;;;;;5072772;28;19913;-87
2022/03/05 00:38:02;;;;;;;;;;;6.40;55.30;;;;;;5073511;28;20281;-87
2022/03/05 00:40:28;;;;;;;;;;;6.30;55.40;;;;;;5071556;28;19912;-87
2022/03/05 00:42:53;;;;;;;;;;;6.20;55.80;;;;;;5071475;28;19948;-87
2022/03/05 00:45:19;;;;;;;;;;;6.20;55.80;;;;;;5072219;28;19925;-87
2022/03/05 00:47:44;;;;;;;;;;;6.10;55.90;;;;;;5072962;28;19913;-87
2022/03/05 00:50:10;;;;;;;;;;;6.00;56.50;;;;;;5061221;28;19920;-88
2022/03/05 00:52:37;;;;;;;;;;;6.00;56.60;;;;;;5059247;28;20275;-87
2022/03/05 00:55:03;;;;;;;;;;;6.00;56.80;;;;;;5065179;28;19917;-87
2022/03/05 00:57:29;;;;;;;;;;;5.90;56.70;;;;;;5060510;28;19920;-87
2022/03/05 00:59:55;;;;;;;;;;;5.80;57.20;;;;;;5072493;28;19966;-87
2022/03/05 01:02:20;;;;;;;;;;;5.80;57.30;;;;;;5070960;28;19912;-87
2022/03/05 01:04:46;;;;;;;;;;;5.70;57.80;;;;;;5073012;28;19944;-87
2022/03/05 01:07:11;;;;;;;;;;;5.70;57.40;;;;;;5067302;28;20328;-87
2022/03/05 01:09:37;;;;;;;;;;;5.80;57.40;;;;;;5055426;28;19919;-87
2022/03/05 01:12:03;;;;;;;;;;;5.80;57.40;;;;;;5071531;28;19920;-87
2022/03/05 01:14:28;;;;;;;;;;;5.70;57.10;;;;;;5073028;28;20428;-87
2022/03/05 01:16:54;;;;;;;;;;;5.70;57.10;;;;;;5072283;28;19908;-88
2022/03/05 01:19:19;;;;;;;;;;;5.70;57.20;;;;;;5072936;28;20279;-88
2022/03/05 01:21:45;;;;;;;;;;;5.80;57.20;;;;;;5072764;28;20282;-88
2022/03/05 01:24:10;;;;;;;;;;;5.90;57.30;;;;;;5072689;28;20255;-87
2022/03/05 01:26:36;;;;;;;;;;;5.90;56.90;;;;;;5070590;28;20293;-88
2022/03/05 01:29:01;;;;;;;;;;;5.90;57.20;;;;;;5072500;28;19916;-88
2022/03/05 01:31:27;;;;;;;;;;;6.00;57.60;;;;;;5072777;28;19913;-88
2022/03/05 01:33:52;;;;;;;;;;;6.00;57.30;;;;;;5072422;28;19912;-87
2022/03/05 01:36:18;;;;;;;;;;;6.00;57.40;;;;;;5072110;28;19912;-88
2022/03/05 01:38:43;;;;;;;;;;;6.00;57.60;;;;;;5072568;28;20003;-88
2022/03/05 01:41:09;;;;;;;;;;;6.10;57.40;;;;;;5071920;28;19917;-88
2022/03/05 01:43:35;;;;;;;;;;;6.10;57.20;;;;;;5072253;28;20328;-88
2022/03/05 01:46:00;;;;;;;;;;;6.10;56.90;;;;;;5058524;28;19919;-88
2022/03/05 01:48:26;;;;;;;;;;;6.10;57.00;;;;;;5067927;28;19942;-88
2022/03/05 01:50:51;;;;;;;;;;;6.00;57.20;;;;;;5072428;28;19917;-88
2022/03/05 01:53:17;;;;;;;;;;;6.00;57.10;;;;;;5072634;28;19913;-88
2022/03/05 01:55:43;;;;;;;;;;;6.00;57.00;;;;;;5071752;28;19920;-88
2022/03/05 01:58:09;;;;;;;;;;;5.90;57.20;;;;;;5071172;28;19920;-88
2022/03/05 02:00:34;;;;;;;;;;;5.90;57.30;;;;;;5056786;28;20306;-88
2022/03/05 02:03:00;;;;;;;;;;;5.80;57.40;;;;;;5067716;28;19912;-88
2022/03/05 02:05:26;;;;;;;;;;;5.70;57.60;;;;;;5069663;28;19953;-88
2022/03/05 02:07:51;;;;;;;;;;;5.60;57.70;;;;;;5066857;28;19996;-87
2022/03/05 02:10:17;;;;;;;;;;;5.50;58.10;;;;;;5075295;28;19913;-87
2022/03/05 02:12:42;;;;;;;;;;;5.40;59.50;;;;;;5074089;28;19924;-88
2022/03/05 02:15:08;;;;;;;;;;;5.30;59.10;;;;;;5073916;28;19912;-88
2022/03/05 02:17:34;;;;;;;;;;;5.20;59.00;;;;;;5075994;28;19915;-88
2022/03/05 02:20:00;;;;;;;;;;;5.10;58.60;;;;;;5075932;28;19913;-88
2022/03/05 02:22:26;;;;;;;;;;;5.10;58.40;;;;;;5074237;28;19920;-87
2022/03/05 02:24:52;;;;;;;;;;;5.10;58.20;;;;;;5074501;28;20381;-88
2022/03/05 02:27:20;;;;;;;;;;;5.10;58.00;;;;;;5064366;28;19912;-88
2022/03/05 02:29:46;;;;;;;;;;;5.10;57.80;;;;;;5075032;28;19986;-88
2022/03/05 02:32:11;;;;;;;;;;;5.10;57.80;;;;;;5075219;28;20390;-87
2022/03/05 02:34:37;;;;;;;;;;;5.10;57.80;;;;;;5075529;28;19999;-88
2022/03/05 02:37:03;;;;;;;;;;;5.00;58.10;;;;;;5075027;28;19948;-88
2022/03/05 02:39:28;;;;;;;;;;;5.00;58.40;;;;;;5075039;28;19942;-88
2022/03/05 02:41:54;;;;;;;;;;;4.90;58.40;;;;;;5073309;28;19935;-88
2022/03/05 02:44:20;;;;;;;;;;;4.90;58.50;;;;;;5075190;28;19956;-87
2022/03/05 02:46:46;;;;;;;;;;;4.80;58.50;;;;;;5074809;28;19962;-87
2022/03/05 02:49:12;;;;;;;;;;;4.70;58.60;;;;;;5075235;28;19932;-88
2022/03/05 02:51:38;;;;;;;;;;;4.70;58.80;;;;;;5075167;28;20306;-87
2022/03/05 02:54:04;;;;;;;;;;;4.70;59.10;;;;;;5075029;28;20558;-87
2022/03/05 02:56:29;;;;;;;;;;;4.60;59.10;;;;;;5074003;28;19916;-88
2022/03/05 02:58:55;;;;;;;;;;;4.60;59.00;;;;;;5075310;28;19909;-88
2022/03/05 03:01:20;;;;;;;;;;;4.60;59.00;;;;;;5074233;28;19912;-87
2022/03/05 03:03:46;;;;;;;;;;;4.60;58.90;;;;;;5072694;28;19935;-88
2022/03/05 03:06:11;;;;;;;;;;;4.60;58.60;;;;;;5075119;28;19908;-87
2022/03/05 03:08:37;;;;;;;;;;;4.50;58.40;;;;;;5074914;28;20278;-88
2022/03/05 03:11:03;;;;;;;;;;;4.60;58.40;;;;;;5065771;28;19923;-87
2022/03/05 03:13:28;;;;;;;;;;;4.50;58.30;;;;;;5066175;28;20286;-87
2022/03/05 03:15:54;;;;;;;;;;;4.50;58.20;;;;;;5069036;28;19944;-87
2022/03/05 03:18:19;;;;;;;;;;;4.50;58.20;;;;;;5053646;28;19913;-87
2022/03/05 03:20:45;;;;;;;;;;;4.50;58.10;;;;;;5061093;28;19913;-88
2022/03/05 03:23:11;;;;;;;;;;;4.40;58.10;;;;;;5074447;28;19912;-87
2022/03/05 03:25:38;;;;;;;;;;;4.40;58.00;;;;;;5074093;28;20019;-87
2022/03/05 03:28:04;;;;;;;;;;;4.40;58.10;;;;;;5074782;28;20010;-87
2022/03/05 03:30:30;;;;;;;;;;;4.30;58.20;;;;;;5071109;28;20421;-87
2022/03/05 03:32:55;;;;;;;;;;;4.20;58.20;;;;;;5074112;28;19921;-87
2022/03/05 03:35:21;;;;;;;;;;;4.10;58.40;;;;;;5073849;28;20007;-88
2022/03/05 03:37:46;;;;;;;;;;;4.10;58.40;;;;;;5074386;28;19955;-87
2022/03/05 03:40:13;;;;;;;;;;;4.00;58.40;;;;;;5073320;28;20353;-88
2022/03/05 03:42:39;;;;;;;;;;;3.90;58.80;;;;;;5073624;28;20402;-88
2022/03/05 03:45:05;;;;;;;;;;;3.90;58.30;;;;;;5073307;28;20007;-87
2022/03/05 03:47:31;;;;;;;;;;;3.90;58.30;;;;;;5074115;28;19965;-87
2022/03/05 03:49:56;;;;;;;;;;;3.80;58.20;;;;;;5074272;28;19908;-87
2022/03/05 03:52:22;;;;;;;;;;;3.80;58.20;;;;;;5072740;28;19916;-87
2022/03/05 03:54:49;;;;;;;;;;;3.80;58.40;;;;;;5074085;28;20370;-87
2022/03/05 03:57:15;;;;;;;;;;;3.80;58.50;;;;;;5062104;28;19912;-87
2022/03/05 03:59:41;;;;;;;;;;;3.80;58.90;;;;;;5074054;28;19908;-87
2022/03/05 04:02:07;;;;;;;;;;;3.80;58.80;;;;;;5061924;28;20389;-88
2022/03/05 04:04:32;;;;;;;;;;;3.90;58.90;;;;;;5073566;28;19912;-87
2022/03/05 04:09:42;;;;;;;;;;;3.90;58.70;;;;;;5073901;28;19935;-87
2022/03/05 04:12:08;;;;;;;;;;;3.80;59.60;;;;;;5057345;28;20366;-87
2022/03/05 04:14:34;;;;;;;;;;;3.80;59.10;;;;;;5071911;28;19974;-88
2022/03/05 04:17:00;;;;;;;;;;;3.50;58.70;;;;;;5072866;28;19916;-88
2022/03/05 04:19:26;;;;;;;;;;;3.40;59.50;;;;;;5073721;28;19916;-87
2022/03/05 04:21:51;;;;;;;;;;;3.40;61.20;;;;;;5072231;28;20003;-87
2022/03/05 04:24:17;;;;;;;;;;;3.40;61.10;;;;;;5073405;28;19913;-87
2022/03/05 04:26:42;;;;;;;;;;;3.30;61.10;;;;;;5072754;28;20389;-87
2022/03/05 04:29:08;;;;;;;;;;;3.20;61.30;;;;;;5073457;28;19908;-88
2022/03/05 04:31:34;;;;;;;;;;;3.10;62.00;;;;;;5072516;28;19969;-88
2022/03/05 04:33:59;;;;;;;;;;;2.90;62.70;;;;;;5073588;28;19969;-87
2022/03/05 04:36:25;;;;;;;;;;;2.90;63.10;;;;;;5072741;28;20297;-87
2022/03/05 04:38:50;;;;;;;;;;;2.70;64.10;;;;;;5073201;28;20003;-87
2022/03/05 04:41:16;;;;;;;;;;;2.80;65.00;;;;;;5065807;28;19913;-88
2022/03/05 04:43:41;;;;;;;;;;;2.90;65.10;;;;;;5063400;28;19920;-88
2022/03/05 04:46:07;;;;;;;;;;;2.90;63.90;;;;;;5072108;28;20305;-87
2022/03/05 04:48:32;;;;;;;;;;;2.90;64.30;;;;;;5073105;28;19993;-87
2022/03/05 04:50:58;;;;;;;;;;;3.00;65.10;;;;;;5068251;28;20019;-87
2022/03/05 04:53:24;;;;;;;;;;;2.90;64.50;;;;;;5092481;28;19912;-87
2022/03/05 04:55:49;;;;;;;;;;;2.90;63.70;;;;;;5072374;28;19920;-87
2022/03/05 04:58:15;;;;;;;;;;;2.80;64.10;;;;;;5073046;28;20374;-87
2022/03/05 05:00:41;;;;;;;;;;;2.70;64.40;;;;;;5071943;28;20310;-87
2022/03/05 05:03:07;;;;;;;;;;;2.80;64.00;;;;;;5072846;28;19919;-87
2022/03/05 05:05:32;;;;;;;;;;;2.60;62.90;;;;;;5072692;28;19908;-87
2022/03/05 05:07:58;;;;;;;;;;;2.60;61.80;;;;;;5072869;28;19913;-87
2022/03/05 05:10:23;;;;;;;;;;;2.70;61.20;;;;;;5081764;22;19908;-87
2022/03/05 05:12:50;;;;;;;;;;;2.70;60.70;;;;;;5090377;28;19932;-87
2022/03/05 05:15:15;;;;;;;;;;;2.70;60.60;;;;;;5093136;28;20435;-87
2022/03/05 05:17:41;;;;;;;;;;;2.70;61.00;;;;;;5092964;28;19912;-87
2022/03/05 05:20:07;;;;;;;;;;;2.70;61.70;;;;;;5093233;28;20266;-87
2022/03/05 05:22:33;;;;;;;;;;;2.60;62.40;;;;;;5092397;28;19951;-87
2022/03/05 05:24:59;;;;;;;;;;;2.60;62.60;;;;;;5093169;28;20008;-88
2022/03/05 05:27:25;;;;;;;;;;;2.50;62.80;;;;;;5092244;28;20384;-87
2022/03/05 05:29:50;;;;;;;;;;;2.40;63.80;;;;;;5092934;28;19915;-87
2022/03/05 05:32:16;;;;;;;;;;;2.40;64.50;;;;;;5092768;28;19923;-87
2022/03/05 05:34:42;;;;;;;;;;;2.30;65.50;;;;;;5096928;28;20018;-87
2022/03/05 05:37:08;;;;;;;;;;;2.20;66.20;;;;;;5096653;28;19925;-86
2022/03/05 05:39:33;;;;;;;;;;;2.10;66.80;;;;;;5096876;28;19951;-87
2022/03/05 05:41:59;;;;;;;;;;;1.90;68.00;;;;;;5096448;28;19920;-87
2022/03/05 05:44:24;;;;;;;;;;;1.80;69.10;;;;;;5096714;28;19916;-87
2022/03/05 05:46:50;;;;;;;;;;;1.60;70.40;;;;;;5096668;28;19916;-87
2022/03/05 05:49:15;;;;;;;;;;;1.60;70.30;;;;;;5096531;28;19912;-86
2022/03/05 05:51:41;;;;;;;;;;;1.50;71.20;;;;;;5096586;28;20289;-87
2022/03/05 05:54:08;;;;;;;;;;;1.30;72.60;;;;;;5096502;28;20402;-87
2022/03/05 05:56:33;;;;;;;;;;;1.20;73.20;;;;;;5095880;28;19947;-87
2022/03/05 05:58:59;;;;;;;;;;;1.10;73.60;;;;;;5096368;28;19951;-87
2022/03/05 06:01:25;;;;;;;;;;;1.00;74.10;;;;;;5096452;28;20425;-87
2022/03/05 06:03:52;;;;;;;;;;;1.00;74.20;;;;;;5096179;28;19920;-87
2022/03/05 06:06:18;;;;;;;;;;;1.00;74.30;;;;;;5096254;28;20369;-87
2022/03/05 06:08:43;;;;;;;;;;;1.20;73.40;;;;;;5096408;28;19915;-86
2022/03/05 06:11:09;;;;;;;;;;;1.50;71.70;;;;;;5095896;28;20349;-87
2022/03/05 06:13:35;;;;;;;;;;;1.70;69.50;;;;;;5088079;28;19920;-87
2022/03/05 06:16:00;;;;;;;;;;;1.80;68.10;;;;;;5076037;28;19908;-86
2022/03/05 06:18:26;;;;;;;;;;;1.80;68.60;;;;;;5086702;28;19920;-86
2022/03/05 06:20:51;;;;;;;;;;;1.90;68.00;;;;;;5089035;28;19912;-86
2022/03/05 06:23:18;;;;;;;;;;;1.90;67.00;;;;;;5091113;28;19913;-86
2022/03/05 06:25:44;;;;;;;;;;;2.00;67.00;;;;;;5084846;28;19973;-86
2022/03/05 06:28:09;;;;;;;;;;;2.00;67.50;;;;;;5095624;28;20324;-86
2022/03/05 06:30:35;;;;;;;;;;;1.90;67.60;;;;;;5095978;28;20007;-86
2022/03/05 06:33:01;;;;;;;;;;;2.00;67.30;;;;;;5085134;28;19942;-86
2022/03/05 06:35:26;;;;;;;;;;;2.10;67.30;;;;;;5091505;28;19920;-86
2022/03/05 06:37:52;;;;;;;;;;;2.00;68.80;;;;;;5086426;28;19926;-86
2022/03/05 06:40:17;;;;;;;;;;;1.80;69.80;;;;;;5085030;28;20294;-86
2022/03/05 06:42:45;;;;;;;;;;;1.60;70.90;;;;;;5087206;28;20054;-86
2022/03/05 06:45:10;;;;;;;;;;;1.60;70.60;;;;;;5082557;28;19916;-86
2022/03/05 06:47:36;;;;;;;;;;;1.70;69.90;;;;;;5090278;28;19916;-86
2022/03/05 06:55:23;;;;;;;;;;;1.80;69.20;;;;;;5107953;27;19916;-86
2022/03/05 06:57:49;;;;;;;;;;;2.20;67.00;;;;;;5089497;28;19912;-86
2022/03/05 07:00:15;;;;;;;;;;;2.40;66.30;;;;;;5089551;28;20555;-86
2022/03/05 07:02:41;;;;;;;;;;;2.40;64.50;;;;;;5088982;28;19920;-86
2022/03/05 07:05:06;;;;;;;;;;;2.60;63.50;;;;;;5091194;28;20444;-86
2022/03/05 07:07:32;;;;;;;;;;;2.70;63.20;;;;;;5089090;28;19912;-85
2022/03/05 07:09:57;;;;;;;;;;;2.90;61.60;;;;;;5090935;28;19913;-86
2022/03/05 07:12:24;;;;;;;;;;;3.00;61.80;;;;;;5090116;28;20033;-85
2022/03/05 07:14:50;;;;;;;;;;;3.00;63.50;;;;;;5089426;28;19982;-86
2022/03/05 07:17:15;;;;;;;;;;;3.00;68.10;;;;;;5093148;28;20322;-85
2022/03/05 07:19:41;;;;;;;;;;;2.90;64.80;;;;;;5090603;28;20436;-86
2022/03/05 07:22:07;;;;;;;;;;;2.90;65.20;;;;;;5089249;28;19913;-86
2022/03/05 07:24:33;;;;;;;;;;;3.00;64.10;;;;;;5094995;28;19966;-86
2022/03/05 07:26:58;;;;;;;;;;;3.20;64.50;;;;;;5085710;28;19963;-86
2022/03/05 07:29:24;;;;;;;;;;;3.30;64.20;;;;;;5078401;28;20389;-86
2022/03/05 07:31:49;;;;;;;;;;;3.40;63.60;;;;;;5078691;28;20324;-85
2022/03/05 07:34:15;;;;;;;;;;;3.50;62.50;;;;;;5082228;28;19990;-86
2022/03/05 07:36:40;;;;;;;;;;;3.60;61.30;;;;;;5071812;28;19948;-85
2022/03/05 07:41:38;;;;;;;;;;;3.70;60.80;;;;;;5101234;27;19916;-86
2022/03/05 07:44:04;;;;;;;;;;;4.00;60.70;;;;;;5088317;28;19913;-86
2022/03/05 07:46:30;;;;;;;;;;;4.00;60.40;;;;;;5089983;28;19912;-86
2022/03/05 07:48:56;;;;;;;;;;;4.20;60.60;;;;;;5088731;28;19958;-86
2022/03/05 07:51:21;;;;;;;;;;;4.30;59.50;;;;;;5091105;28;19913;-86
2022/03/05 07:53:47;;;;;;;;;;;4.40;60.30;;;;;;5086380;28;19912;-86
2022/03/05 07:56:12;;;;;;;;;;;4.50;59.60;;;;;;5089023;28;19974;-86
2022/03/05 07:58:38;;;;;;;;;;;4.70;59.70;;;;;;5084200;28;19970;-86
2022/03/05 08:01:04;;;;;;;;;;;4.80;58.60;;;;;;5089811;28;20333;-86
2022/03/05 08:03:29;;;;;;;;;;;5.00;57.20;;;;;;5080780;28;19912;-86
2022/03/05 08:05:55;;;;;;;;;;;5.10;56.70;;;;;;5088930;28;20524;-86
2022/03/05 08:08:21;;;;;;;;;;;5.10;56.30;;;;;;5084070;28;20349;-86
2022/03/05 08:10:46;;;;;;;;;;;5.20;56.20;;;;;;5077672;28;19919;-86
2022/03/05 08:13:12;;;;;;;;;;;5.20;56.60;;;;;;5086466;28;19938;-86
2022/03/05 08:15:37;;;;;;;;;;;5.30;56.50;;;;;;5088361;28;19912;-86
2022/03/05 08:18:03;;;;;;;;;;;5.30;55.80;;;;;;5084340;28;20397;-86
2022/03/05 08:20:30;;;;;;;;;;;5.40;56.20;;;;;;5085497;28;19955;-86
2022/03/05 08:22:56;;;;;;;;;;;5.50;56.30;;;;;;5086641;28;19912;-86
2022/03/05 08:25:22;;;;;;;;;;;5.60;56.20;;;;;;5084672;28;19935;-86
2022/03/05 08:27:47;;;;;;;;;;;5.70;56.00;;;;;;5089854;28;19931;-86
2022/03/05 08:30:14;;;;;;;;;;;5.90;55.10;;;;;;5085896;28;19913;-86
2022/03/05 08:32:39;;;;;;;;;;;6.10;55.50;;;;;;5079395;28;20332;-86
2022/03/05 08:35:06;;;;;;;;;;;6.30;54.60;;;;;;5083094;28;19912;-86
2022/03/05 08:37:32;;;;;;;;;;;6.50;53.90;;;;;;5097777;28;19912;-86
2022/03/05 08:39:57;;;;;;;;;;;6.70;49.90;;;;;;5084204;28;20302;-86
2022/03/05 08:42:23;;;;;;;;;;;6.90;47.50;;;;;;5088664;28;19950;-86
2022/03/05 08:44:49;;;;;;;;;;;7.20;46.10;;;;;;5086445;28;19924;-86
2022/03/05 08:47:14;;;;;;;;;;;7.40;44.40;;;;;;5088661;28;19936;-85
2022/03/05 08:49:40;;;;;;;;;;;7.40;45.60;;;;;;5089045;28;19912;-85
2022/03/05 08:52:05;;;;;;;;;;;7.50;43.10;;;;;;5078949;28;19958;-86
2022/03/05 08:54:31;;;;;;;;;;;7.50;43.70;;;;;;5066605;28;19912;-86
2022/03/05 08:56:57;;;;;;;;;;;7.70;44.90;;;;;;5073681;28;20339;-85
2022/03/05 08:59:22;;;;;;;;;;;7.80;42.70;;;;;;5077828;28;19912;-85
2022/03/05 09:01:48;;;;;;;;;;;7.70;40.90;;;;;;5074886;28;19912;-85
2022/03/05 09:04:13;;;;;;;;;;;7.60;40.40;;;;;;5075531;28;19916;-85
2022/03/05 09:06:39;;;;;;;;;;;7.50;42.00;;;;;;5065617;28;20286;-86
2022/03/05 09:09:05;;;;;;;;;;;7.60;40.90;;;;;;5072262;28;19918;-86
2022/03/05 09:11:31;;;;;;;;;;;7.40;41.50;;;;;;5073147;28;19962;-85
2022/03/05 09:13:57;;;;;;;;;;;7.50;42.20;;;;;;5071421;28;19955;-85
2022/03/05 09:16:22;;;;;;;;;;;7.50;42.60;;;;;;5079223;28;19919;-86
2022/03/05 09:18:48;;;;;;;;;;;7.60;42.70;;;;;;5073691;28;19912;-86
2022/03/05 09:21:13;;;;;;;;;;;7.80;43.30;;;;;;5074013;28;19970;-86
2022/03/05 09:23:39;;;;;;;;;;;7.90;44.20;;;;;;5073223;28;20007;-86
2022/03/05 09:26:04;;;;;;;;;;;8.00;43.50;;;;;;5071718;28;20333;-86
2022/03/05 09:28:30;;;;;;;;;;;8.20;42.40;;;;;;5083105;28;21936;-86
2022/03/05 09:30:56;;;;;;;;;;;8.20;41.30;;;;;;5074888;28;19926;-86
2022/03/05 09:33:22;;;;;;;;;;;8.40;43.00;;;;;;5074647;28;19939;-86
2022/03/05 09:35:49;;;;;;;;;;;8.50;43.20;;;;;;5071512;28;19916;-86
2022/03/05 09:38:15;;;;;;;;;;;8.60;43.50;;;;;;5079969;28;19955;-86
2022/03/05 09:40:41;;;;;;;;;;;8.50;39.10;;;;;;5081134;28;19964;-86
2022/03/05 09:43:06;;;;;;;;;;;8.40;40.20;;;;;;5076935;28;20015;-86
2022/03/05 09:45:32;;;;;;;;;;;8.50;41.40;;;;;;5078246;28;19916;-86
2022/03/05 09:47:58;;;;;;;;;;;8.60;41.20;;;;;;5083367;28;20549;-86
2022/03/05 09:50:32;;;;;;;;;;;8.70;44.30;;;;;;5071476;28;19959;-86
2022/03/05 09:52:58;;;;;;;;;;;8.90;42.90;;;;;;5069461;28;19925;-86
2022/03/05 09:55:24;;;;;;;;;;;9.10;42.50;;;;;;5059097;28;19948;-86
2022/03/05 09:57:49;;;;;;;;;;;9.20;41.20;;;;;;5059927;28;19963;-86
2022/03/05 10:00:15;;;;;;;;;;;9.30;39.30;;;;;;5068022;28;19922;-86
2022/03/05 10:02:41;;;;;;;;;;;9.40;39.70;;;;;;5069625;28;20358;-86
2022/03/05 10:05:12;;;;;;;;;;;9.40;40.60;;;;;;5069479;28;19961;-86
2022/03/05 10:07:38;;;;;;;;;;;9.40;40.40;;;;;;5056432;28;20280;-86
2022/03/05 10:10:07;;;;;;;;;;;9.50;41.10;;;;;;5073060;28;19912;-86
2022/03/05 10:12:34;;;;;;;;;;;9.60;39.60;;;;;;5073913;28;19912;-86
2022/03/05 10:15:09;;;;;;;;;;;9.70;38.20;;;;;;5066973;28;19999;-85
2022/03/05 10:17:54;;;;;;;;;;;9.60;38.70;;;;;;5061755;28;19913;-86
2022/03/05 10:20:27;;;;;;;;;;;9.60;40.40;;;;;;5069770;28;19921;-86
2022/03/05 10:23:03;;;;;;;;;;;9.60;39.30;;;;;;5064224;28;19912;-85
2022/03/05 10:25:34;;;;;;;;;;;9.70;38.50;;;;;;5062425;28;20034;-86
2022/03/05 10:28:20;;;;;;;;;;;9.70;38.20;;;;;;5072136;28;19917;-86
2022/03/05 10:30:45;;;;;;;;;;;9.70;38.30;;;;;;5057804;28;19916;-86
2022/03/05 10:33:23;;;;;;;;;;;9.80;38.40;;;;;;5061546;28;19936;-86
2022/03/05 10:35:49;;;;;;;;;;;9.90;39.90;;;;;;5072240;28;19913;-86
2022/03/05 10:38:14;;;;;;;;;;;10.10;40.30;;;;;;5069026;28;19913;-86
2022/03/05 10:40:40;;;;;;;;;;;10.30;37.50;;;;;;5064779;28;19920;-86
2022/03/05 10:43:07;;;;;;;;;;;10.30;37.30;;;;;;5062175;28;19912;-86
2022/03/05 10:45:51;;;;;;;;;;;10.40;37.70;;;;;;5069178;28;19920;-86
2022/03/05 10:48:30;;;;;;;;;;;10.50;38.20;;;;;;5078616;28;20002;-86
2022/03/05 10:50:56;;;;;;;;;;;10.40;35.80;;;;;;5058437;28;19913;-86
2022/03/05 10:53:35;;;;;;;;;;;10.30;36.10;;;;;;5065996;28;19970;-85
2022/03/05 10:56:20;;;;;;;;;;;10.20;37.00;;;;;;5064433;28;20435;-86
2022/03/05 10:58:56;;;;;;;;;;;10.20;38.20;;;;;;5065433;28;20388;-86
2022/03/05 11:01:21;;;;;;;;;;;10.30;37.50;;;;;;5063023;28;19917;-86
2022/03/05 11:03:49;;;;;;;;;;;10.30;36.10;;;;;;5068164;28;20042;-86
2022/03/05 11:06:15;;;;;;;;;;;10.40;36.20;;;;;;5062729;28;19913;-86
2022/03/05 11:08:41;;;;;;;;;;;10.50;35.20;;;;;;5056189;28;20367;-86
2022/03/05 11:11:06;;;;;;;;;;;10.70;36.60;;;;;;5058115;28;19958;-86
2022/03/05 11:13:32;;;;;;;;;;;10.70;36.10;;;;;;5072964;28;20043;-86
2022/03/05 11:15:59;;;;;;;;;;;10.90;32.80;;;;;;5073023;28;19916;-86
2022/03/05 11:18:25;;;;;;;;;;;11.00;34.60;;;;;;5073534;28;19966;-86
2022/03/05 11:20:52;;;;;;;;;;;11.10;35.70;;;;;;5073171;28;20332;-86
2022/03/05 11:23:20;;;;;;;;;;;11.10;33.40;;;;;;5072939;28;19912;-86
2022/03/05 11:25:45;;;;;;;;;;;11.10;33.40;;;;;;5072996;28;19908;-86
2022/03/05 11:28:17;;;;;;;;;;;11.00;35.10;;;;;;5073031;28;19908;-86
2022/03/05 11:30:44;;;;;;;;;;;11.10;34.90;;;;;;5072693;28;19913;-86
2022/03/05 11:33:13;;;;;;;;;;;11.00;37.00;;;;;;5072797;28;19916;-86
2022/03/05 11:35:43;;;;;;;;;;;11.20;33.90;;;;;;5073336;28;19920;-86
2022/03/05 11:38:27;;;;;;;;;;;11.40;32.40;;;;;;5073047;28;19921;-86
2022/03/05 11:40:53;;;;;;;;;;;11.60;32.70;;;;;;5072744;28;19921;-86
2022/03/05 11:43:18;;;;;;;;;;;11.90;30.80;;;;;;5072546;28;20337;-86
2022/03/05 11:45:48;;;;;;;;;;;12.00;32.60;;;;;;5073000;28;19908;-86
2022/03/05 11:48:23;;;;;;;;;;;11.90;33.70;;;;;;5072933;28;19913;-86
2022/03/05 11:50:50;;;;;;;;;;;12.10;32.70;;;;;;5072903;28;20294;-86
2022/03/05 11:53:15;;;;;;;;;;;12.40;31.10;;;;;;5072627;28;20366;-86
2022/03/05 11:55:45;;;;;;;;;;;12.80;31.40;;;;;;5072912;28;19958;-86
2022/03/05 11:58:13;;;;;;;;;;;12.90;31.60;;;;;;5072608;28;20209;-86
2022/03/05 12:00:41;;;;;;;;;;;13.10;31.80;;;;;;5072494;28;20279;-87
2022/03/05 12:03:07;;;;;;;;;;;13.40;31.50;;;;;;5071787;28;19938;-87
2022/03/05 12:05:32;;;;;;;;;;;13.80;29.20;;;;;;5072784;28;19912;-87
2022/03/05 12:07:58;;;;;;;;;;;14.10;29.40;;;;;;5072488;28;19954;-87
2022/03/05 12:10:24;;;;;;;;;;;14.30;27.90;;;;;;5072119;28;19920;-86
2022/03/05 12:12:53;;;;;;;;;;;14.10;28.00;;;;;;5072114;28;19932;-86
2022/03/05 12:15:26;;;;;;;;;;;14.00;26.90;;;;;;5072675;28;19908;-86
2022/03/05 12:17:52;;;;;;;;;;;13.80;28.60;;;;;;5072626;28;19995;-86
2022/03/05 12:20:19;;;;;;;;;;;13.80;28.90;;;;;;5072155;28;19916;-87
2022/03/05 12:22:45;;;;;;;;;;;13.90;29.70;;;;;;5071933;28;19920;-87
2022/03/05 12:25:11;;;;;;;;;;;14.40;29.80;;;;;;5072454;28;20278;-87
2022/03/05 12:27:43;;;;;;;;;;;14.90;28.20;;;;;;5074757;28;19920;-87
2022/03/05 12:30:11;;;;;;;;;;;15.70;26.80;;;;;;5075789;28;19915;-87
2022/03/05 12:32:37;;;;;;;;;;;16.50;26.30;;;;;;5076226;28;19912;-87
2022/03/05 12:35:04;;;;;;;;;;;17.30;25.10;;;;;;5076473;28;19916;-87
2022/03/05 12:37:31;;;;;;;;;;;18.20;24.50;;;;;;5075903;28;19917;-87
2022/03/05 12:39:57;;;;;;;;;;;18.90;25.00;;;;;;5075916;28;19927;-87
2022/03/05 12:42:22;;;;;;;;;;;18.50;25.00;;;;;;5075874;28;19912;-87
2022/03/05 12:44:48;;;;;;;;;;;18.50;23.40;;;;;;5076060;28;19908;-87
2022/03/05 12:47:13;;;;;;;;;;;18.90;23.10;;;;;;5075742;28;20254;-87
2022/03/05 12:49:39;;;;;;;;;;;18.70;24.10;;;;;;5075911;28;20304;-87
2022/03/05 12:52:09;;;;;;;;;;;18.60;25.10;;;;;;5075866;28;19961;-87
2022/03/05 12:54:34;;;;;;;;;;;18.60;24.10;;;;;;5075943;28;19909;-87
2022/03/05 12:57:00;;;;;;;;;;;18.60;25.30;;;;;;5075765;28;19915;-87
2022/03/05 12:59:25;;;;;;;;;;;18.60;22.40;;;;;;5074445;28;19919;-87
2022/03/05 13:02:01;;;;;;;;;;;18.40;22.30;;;;;;5075830;28;20289;-87
2022/03/05 13:04:27;;;;;;;;;;;18.60;23.30;;;;;;5075708;28;20062;-87
2022/03/05 13:06:56;;;;;;;;;;;18.30;22.70;;;;;;5075361;28;20429;-87
2022/03/05 13:09:22;;;;;;;;;;;18.50;23.60;;;;;;5075158;28;19913;-87
2022/03/05 13:11:49;;;;;;;;;;;18.80;23.70;;;;;;5075268;28;19912;-87
2022/03/05 13:14:19;;;;;;;;;;;18.50;21.30;;;;;;5074994;28;20362;-88
2022/03/05 13:16:48;;;;;;;;;;;18.00;22.20;;;;;;5075498;28;19956;-88
2022/03/05 13:19:13;;;;;;;;;;;18.50;23.60;;;;;;5074944;28;19912;-88
2022/03/05 13:21:40;;;;;;;;;;;19.20;24.00;;;;;;5075015;28;19927;-88
2022/03/05 13:24:11;;;;;;;;;;;19.20;20.60;;;;;;5075416;28;19908;-88
2022/03/05 13:26:37;;;;;;;;;;;19.30;22.40;;;;;;5075367;28;20007;-87
2022/03/05 13:29:04;;;;;;;;;;;18.70;22.20;;;;;;5074876;28;19917;-87
2022/03/05 13:31:30;;;;;;;;;;;18.40;21.10;;;;;;5074214;28;19962;-88
2022/03/05 13:33:56;;;;;;;;;;;18.90;21.40;;;;;;5075209;28;20324;-88
2022/03/05 13:36:44;;;;;;;;;;;18.80;22.50;;;;;;5075164;28;19912;-88
2022/03/05 13:39:14;;;;;;;;;;;18.80;23.10;;;;;;5062032;28;19924;-88
2022/03/05 13:41:44;;;;;;;;;;;18.60;22.80;;;;;;5074603;28;19924;-88
2022/03/05 13:44:20;;;;;;;;;;;18.80;23.60;;;;;;5074657;28;20319;-88
2022/03/05 13:46:46;;;;;;;;;;;19.30;22.40;;;;;;5074961;28;19908;-88
2022/03/05 13:49:14;;;;;;;;;;;19.30;21.60;;;;;;5074501;28;19966;-88
2022/03/05 13:51:43;;;;;;;;;;;19.60;22.30;;;;;;5074526;28;19916;-88
2022/03/05 13:54:09;;;;;;;;;;;19.90;20.50;;;;;;5074773;28;20460;-88
2022/03/05 13:56:42;;;;;;;;;;;19.90;19.60;;;;;;5074745;28;19908;-88
2022/03/05 13:59:08;;;;;;;;;;;19.80;19.60;;;;;;5074134;28;19916;-88
2022/03/05 14:01:35;;;;;;;;;;;20.30;19.80;;;;;;5074609;28;19916;-89
2022/03/05 14:04:17;;;;;;;;;;;20.80;19.90;;;;;;5074287;28;19913;-89
2022/03/05 14:06:53;;;;;;;;;;;21.60;18.00;;;;;;5074561;28;19913;-88
2022/03/05 14:09:22;;;;;;;;;;;22.10;18.40;;;;;;5074413;28;19912;-88
2022/03/05 14:12:05;;;;;;;;;;;21.50;19.40;;;;;;5074091;28;20278;-88
2022/03/05 14:14:43;;;;;;;;;;;21.90;18.20;;;;;;5074112;28;20007;-88
2022/03/05 14:17:09;;;;;;;;;;;22.60;18.20;;;;;;5073980;28;20375;-88
2022/03/05 14:19:34;;;;;;;;;;;22.80;17.90;;;;;;5074188;28;19908;-88
2022/03/05 14:22:04;;;;;;;;;;;22.70;18.10;;;;;;5074463;28;19912;-88
2022/03/05 14:24:29;;;;;;;;;;;23.00;17.40;;;;;;5073881;28;19916;-88
2022/03/05 14:26:56;;;;;;;;;;;22.70;17.30;;;;;;5074124;28;19942;-88
2022/03/05 14:29:22;;;;;;;;;;;23.00;17.10;;;;;;5073647;28;20293;-88
2022/03/05 14:31:47;;;;;;;;;;;22.90;16.90;;;;;;5073689;28;19918;-88
2022/03/05 14:34:19;;;;;;;;;;;22.80;16.80;;;;;;5072938;28;19927;-88